Time;durP1;ratioP1;P1;durP2;ratioP2;P2;SDS_P1;SDS_P2;PMS_P1;PMS_P2;Temp;Humidity;BMP_temperature;BMP_pressure;BME280_temperature;BME280_humidity;BME280_pressure;Samples;Min_cycle;Max_cycle;Signal;HPM_P1;HPM_P2
2023/03/20 00:00:31;;;;;;;;;;;;;;;11.73;74.21;101427.19;7359429;19;20236;-59
2023/03/20 00:02:58;;;;;;;;;;;;;;;11.71;73.86;101418.56;7358493;19;19910;-62
2023/03/20 00:05:27;;;;;;;;;;;;;;;11.67;73.66;101419.00;7359928;19;19986;-62
2023/03/20 00:07:54;;;;;;;;;;;;;;;11.64;73.65;101414.81;7359270;19;20015;-60
2023/03/20 00:10:21;;;;;;;;;;;;;;;11.61;73.50;101399.31;7361910;19;19929;-63
2023/03/20 00:12:48;;;;;;;;;;;;;;;11.62;74.06;101402.78;7355511;19;19927;-60
2023/03/20 00:15:35;;;;;;;;;;;;;;;11.62;74.87;101405.41;7358811;19;19915;-62
2023/03/20 00:18:02;;;;;;;;;;;;;;;11.61;74.52;101395.84;7359015;19;19919;-61
2023/03/20 00:20:29;;;;;;;;;;;;;;;11.64;74.75;101398.19;7358065;19;19923;-61
2023/03/20 00:22:57;;;;;;;;;;;;;;;11.64;74.15;101401.66;7359530;19;20068;-61
2023/03/20 00:25:24;;;;;;;;;;;;;;;11.67;75.16;101408.44;7355447;19;19935;-60
2023/03/20 00:27:51;;;;;;;;;;;;;;;11.66;75.01;101409.41;7358316;19;19942;-62
2023/03/20 00:30:44;;;;;;;;;;;;;;;11.65;74.98;101411.22;7357940;19;19922;-62
2023/03/20 00:33:11;;;;;;;;;;;;;;;11.64;74.83;101414.00;7360595;19;19923;-63
2023/03/20 00:35:38;;;;;;;;;;;;;;;11.66;75.78;101417.31;7364522;19;20021;-59
2023/03/20 00:38:05;;;;;;;;;;;;;;;11.68;76.99;101410.13;7358702;19;19915;-62
2023/03/20 00:40:33;;;;;;;;;;;;;;;11.71;77.52;101418.56;7358091;19;20097;-62
2023/03/20 00:43:01;;;;;;;;;;;;;;;11.63;76.09;101423.69;7359413;19;19925;-62
2023/03/20 00:45:29;;;;;;;;;;;;;;;11.61;77.95;101415.13;7357724;19;19978;-60
2023/03/20 00:47:59;;;;;;;;;;;;;;;11.64;78.68;101406.09;7359021;19;19914;-60
2023/03/20 00:50:28;;;;;;;;;;;;;;;11.66;78.56;101406.78;7357518;19;19990;-62
2023/03/20 00:52:56;;;;;;;;;;;;;;;11.66;77.15;101417.31;7358315;19;19950;-61
2023/03/20 00:55:25;;;;;;;;;;;;;;;11.62;77.10;101411.53;7354573;19;19918;-59
2023/03/20 00:57:52;;;;;;;;;;;;;;;11.63;77.95;101418.44;7356660;19;19934;-60
2023/03/20 01:00:21;;;;;;;;;;;;;;;11.63;78.29;101418.44;7360783;19;19982;-61
2023/03/20 01:02:48;;;;;;;;;;;;;;;11.60;76.95;101408.19;7357693;19;21084;-63
2023/03/20 01:05:14;;;;;;;;;;;;;;;11.60;77.23;101408.19;7359501;19;20506;-61
2023/03/20 01:07:41;;;;;;;;;;;;;;;11.58;76.37;101412.75;7355795;19;19922;-60
2023/03/20 01:10:10;;;;;;;;;;;;;;;11.56;77.30;101410.28;7358916;19;19922;-62
2023/03/20 01:12:38;;;;;;;;;;;;;;;11.56;77.53;101407.66;7360792;19;19923;-62
2023/03/20 01:15:10;;;;;;;;;;;;;;;11.59;78.93;101414.44;7359030;19;21209;-60
2023/03/20 01:17:37;;;;;;;;;;;;;;;11.59;78.02;101406.53;7356247;19;20361;-62
2023/03/20 01:20:05;;;;;;;;;;;;;;;11.59;77.37;101399.44;7358857;19;19927;-63
2023/03/20 01:22:32;;;;;;;;;;;;;;;11.60;76.94;101402.91;7357314;19;20280;-62
2023/03/20 01:24:59;;;;;;;;;;;;;;;11.55;76.17;101403.34;7359399;19;19929;-61
2023/03/20 01:27:26;;;;;;;;;;;;;;;11.54;77.15;101406.13;7356267;19;20255;-61
2023/03/20 01:29:53;;;;;;;;;;;;;;;11.53;77.27;101397.38;7359001;19;19933;-62
2023/03/20 01:32:20;;;;;;;;;;;;;;;11.53;77.03;101397.38;7357608;19;20526;-59
2023/03/20 01:34:47;;;;;;;;;;;;;;;11.53;77.52;101394.75;7360063;19;19945;-59
2023/03/20 01:37:17;;;;;;;;;;;;;;;11.50;76.73;101405.59;7357101;19;20271;-60
2023/03/20 01:39:44;;;;;;;;;;;;;;;11.51;77.57;101399.34;7360104;19;19919;-61
2023/03/20 01:42:13;;;;;;;;;;;;;;;11.50;77.30;101396.84;7363408;19;20303;-60
2023/03/20 01:44:40;;;;;;;;;;;;;;;11.47;76.87;101392.72;7364342;19;19927;-60
2023/03/20 01:47:26;;;;;;;;;;;;;;;11.47;76.92;101392.72;7364519;19;21594;-61
2023/03/20 01:50:12;;;;;;;;;;;;;;;11.52;76.83;101395.75;7365607;19;19915;-60
2023/03/20 01:52:38;;;;;;;;;;;;;;;11.54;76.69;101396.41;7364675;19;19919;-62
2023/03/20 01:55:05;;;;;;;;;;;;;;;11.53;77.46;101386.84;7361349;19;19974;-60
2023/03/20 01:57:32;;;;;;;;;;;;;;;11.51;77.50;101382.72;7361389;19;19926;-64
2023/03/20 01:59:58;;;;;;;;;;;;;;;11.50;78.01;101381.03;7364301;19;19930;-61
2023/03/20 02:02:34;;;;;;;;;;;;;;;11.48;78.10;101380.34;7358878;19;20516;-62
2023/03/20 02:05:05;;;;;;;;;;;;;;;11.50;78.38;101384.50;7363830;19;19951;-60
2023/03/20 02:07:33;;;;;;;;;;;;;;;11.52;79.14;101381.75;7363902;19;20338;-63
2023/03/20 02:10:01;;;;;;;;;;;;;;;11.55;79.00;101379.63;7363487;19;21568;-60
2023/03/20 02:12:34;;;;;;;;;;;;;;;11.55;78.38;101381.44;7361717;19;19927;-63
2023/03/20 02:15:02;;;;;;;;;;;;;;;11.55;78.04;101377.00;7362595;19;19949;-59
2023/03/20 02:17:29;;;;;;;;;;;;;;;11.55;77.52;101361.19;7360370;19;19929;-63
2023/03/20 02:19:59;;;;;;;;;;;;;;;11.57;78.12;101367.16;7361742;19;19922;-63
2023/03/20 02:22:41;;;;;;;;;;;;;;;11.57;77.52;101359.25;7361936;19;19919;-60
2023/03/20 02:25:14;;;;;;;;;;;;;;;11.55;77.19;101358.56;7361144;19;19939;-60
2023/03/20 02:28:04;;;;;;;;;;;;;;;11.54;77.31;101354.25;7364901;19;19927;-60
2023/03/20 02:30:36;;;;;;;;;;;;;;;11.53;77.11;101344.69;7363385;19;19918;-61
2023/03/20 02:33:21;;;;;;;;;;;;;;;11.53;77.38;101343.84;7364229;19;20451;-62
2023/03/20 02:36:02;;;;;;;;;;;;;;;11.54;76.98;101343.72;7363788;19;20913;-61
2023/03/20 02:38:47;;;;;;;;;;;;;;;11.47;76.58;101334.75;7361047;19;20269;-60
2023/03/20 02:41:22;;;;;;;;;;;;;;;11.44;77.34;101315.75;7362410;19;19915;-61
2023/03/20 02:43:58;;;;;;;;;;;;;;;11.42;77.36;101326.44;7362856;19;20493;-61
2023/03/20 02:46:31;;;;;;;;;;;;;;;11.41;76.61;101322.16;7363644;19;20025;-59
2023/03/20 02:49:36;;;;;;;;;;;;;;;11.42;77.90;101326.44;7359106;19;19922;-61
2023/03/20 02:52:22;;;;;;;;;;;;;;;11.43;77.57;101308.81;7352617;19;19911;-61
2023/03/20 02:54:48;;;;;;;;;;;;;;;11.40;76.62;101301.22;7354649;19;19925;-62
2023/03/20 02:57:15;;;;;;;;;;;;;;;11.39;77.33;101300.38;7360203;19;19930;-63
2023/03/20 02:59:45;;;;;;;;;;;;;;;11.38;77.55;101306.63;7357021;19;19919;-62
2023/03/20 03:02:15;;;;;;;;;;;;;;;11.39;77.84;101308.28;7364514;19;19915;-64
2023/03/20 03:04:53;;;;;;;;;;;;;;;11.39;77.75;101312.72;7361785;19;20204;-61
2023/03/20 03:07:23;;;;;;;;;;;;;;;11.40;78.32;101312.59;7361493;19;19923;-63
2023/03/20 03:09:52;;;;;;;;;;;;;;;11.41;78.32;101300.25;7358670;19;19923;-59
2023/03/20 03:12:24;;;;;;;;;;;;;;;11.47;79.33;101303.13;7359850;19;19919;-61
2023/03/20 03:14:57;;;;;;;;;;;;;;;11.48;78.52;101298.66;7361404;19;21843;-60
2023/03/20 03:17:26;;;;;;;;;;;;;;;11.45;77.78;101297.16;7359982;19;20395;-61
2023/03/20 03:19:56;;;;;;;;;;;;;;;11.45;78.20;101299.78;7359476;19;20419;-61
2023/03/20 03:22:24;;;;;;;;;;;;;;;11.47;79.05;101292.59;7357427;19;19922;-62
2023/03/20 03:24:51;;;;;;;;;;;;;;;11.46;78.76;101290.91;7359566;19;20279;-60
2023/03/20 03:27:30;;;;;;;;;;;;;;;11.50;80.23;101294.09;7359119;19;19933;-61
2023/03/20 03:30:03;;;;;;;;;;;;;;;11.53;79.21;101293.78;7360096;19;19922;-61
2023/03/20 03:32:34;;;;;;;;;;;;;;;11.52;79.55;101292.97;7360961;19;19923;-62
2023/03/20 03:35:04;;;;;;;;;;;;;;;11.51;79.42;101287.84;7363214;19;19918;-61
2023/03/20 03:37:43;;;;;;;;;;;;;;;11.48;77.98;101290.75;7358853;19;19931;-61
2023/03/20 03:40:13;;;;;;;;;;;;;;;11.46;77.61;101280.38;7355927;19;19915;-60
2023/03/20 03:42:51;;;;;;;;;;;;;;;11.41;77.95;101282.63;7360544;19;19927;-61
2023/03/20 03:45:24;;;;;;;;;;;;;;;11.40;78.58;101282.75;7358774;19;20570;-61
2023/03/20 03:47:54;;;;;;;;;;;;;;;11.40;78.92;101280.13;7359080;19;19926;-61
2023/03/20 03:50:30;;;;;;;;;;;;;;;11.39;79.23;101281.09;7361665;19;19922;-58
2023/03/20 03:52:58;;;;;;;;;;;;;;;11.40;79.25;101280.13;7360786;19;20228;-61
2023/03/20 03:55:26;;;;;;;;;;;;;;;11.42;80.03;101276.38;7355556;19;19931;-62
2023/03/20 03:57:59;;;;;;;;;;;;;;;11.44;79.78;101278.84;7358955;19;19932;-59
2023/03/20 04:00:26;;;;;;;;;;;;;;;11.44;79.15;101276.22;7354889;19;20785;-60
2023/03/20 04:02:54;;;;;;;;;;;;;;;11.42;78.59;101276.38;7359310;19;19930;-60
2023/03/20 04:05:23;;;;;;;;;;;;;;;11.43;79.43;101274.56;7359278;19;19922;-62
2023/03/20 04:07:52;;;;;;;;;;;;;;;11.45;79.98;101275.25;7360067;19;19948;-61
2023/03/20 04:10:19;;;;;;;;;;;;;;;11.47;79.14;101279.41;7355335;19;19915;-60
2023/03/20 04:12:46;;;;;;;;;;;;;;;11.48;78.85;101275.78;7359755;19;19934;-61
2023/03/20 04:15:14;;;;;;;;;;;;;;;11.47;78.58;101271.50;7358351;19;19929;-62
2023/03/20 04:17:41;;;;;;;;;;;;;;;11.43;78.76;101264.84;7358555;19;19947;-61
2023/03/20 04:20:09;;;;;;;;;;;;;;;11.46;79.15;101261.09;7357567;19;20235;-60
2023/03/20 04:22:36;;;;;;;;;;;;;;;11.47;79.09;101263.59;7358661;19;20302;-60
2023/03/20 04:25:03;;;;;;;;;;;;;;;11.48;78.54;101261.75;7358791;19;19926;-62
2023/03/20 04:27:30;;;;;;;;;;;;;;;11.44;77.79;101268.31;7357796;19;19930;-62
2023/03/20 04:29:57;;;;;;;;;;;;;;;11.39;78.72;101263.50;7359175;19;19930;-62
2023/03/20 04:32:24;;;;;;;;;;;;;;;11.40;78.62;101266.97;7358310;19;20467;-60
2023/03/20 04:34:52;;;;;;;;;;;;;;;11.40;78.11;101266.97;7359134;19;19922;-61
2023/03/20 04:37:19;;;;;;;;;;;;;;;11.42;78.50;101272.91;7359397;19;19927;-61
2023/03/20 04:39:46;;;;;;;;;;;;;;;11.42;78.30;101275.56;7358125;19;19941;-61
2023/03/20 04:42:13;;;;;;;;;;;;;;;11.41;77.84;101279.16;7356194;19;21908;-62
2023/03/20 04:44:39;;;;;;;;;;;;;;;11.40;78.06;101269.59;7359174;19;19986;-62
2023/03/20 04:47:06;;;;;;;;;;;;;;;11.40;78.52;101272.22;7357342;19;19934;-61
2023/03/20 04:49:33;;;;;;;;;;;;;;;11.39;77.68;101273.19;7355209;19;20016;-61
2023/03/20 04:51:59;;;;;;;;;;;;;;;11.40;78.14;101269.59;7358650;19;19923;-61
2023/03/20 04:54:26;;;;;;;;;;;;;;;11.36;77.77;101266.44;7357866;19;20379;-62
2023/03/20 04:56:53;;;;;;;;;;;;;;;11.35;77.46;101264.78;7357484;19;19926;-60
2023/03/20 04:59:19;;;;;;;;;;;;;;;11.38;78.30;101251.28;7356390;19;20247;-62
2023/03/20 05:01:46;;;;;;;;;;;;;;;11.37;78.12;101254.91;7358531;19;19919;-63
2023/03/20 05:04:13;;;;;;;;;;;;;;;11.37;78.47;101251.47;7353948;19;19934;-64
2023/03/20 05:06:40;;;;;;;;;;;;;;;11.41;79.39;101243.09;7356202;19;19915;-62
2023/03/20 05:09:07;;;;;;;;;;;;;;;11.42;78.87;101243.94;7353881;19;19923;-62
2023/03/20 05:11:33;;;;;;;;;;;;;;;11.47;80.26;101244.31;7359145;19;19919;-62
2023/03/20 05:14:00;;;;;;;;;;;;;;;11.48;78.88;101252.06;7366090;19;19945;-62
2023/03/20 05:16:27;;;;;;;;;;;;;;;11.46;78.46;101245.28;7365078;19;19994;-61
2023/03/20 05:18:54;;;;;;;;;;;;;;;11.43;79.03;101241.13;7363029;19;20042;-62
2023/03/20 05:21:21;;;;;;;;;;;;;;;11.43;78.74;101245.56;7364478;19;19919;-61
2023/03/20 05:23:47;;;;;;;;;;;;;;;11.44;79.54;101247.22;7362989;19;20243;-61
2023/03/20 05:26:14;;;;;;;;;;;;;;;11.45;79.51;101251.53;7364236;19;19926;-62
2023/03/20 05:28:41;;;;;;;;;;;;;;;11.44;79.67;101250.69;7363755;19;20008;-61
2023/03/20 05:31:08;;;;;;;;;;;;;;;11.44;79.68;101249.88;7364837;19;19965;-61
2023/03/20 05:33:35;;;;;;;;;;;;;;;11.44;79.99;101250.69;7365789;19;19933;-61
2023/03/20 05:36:04;;;;;;;;;;;;;;;11.46;80.10;101246.13;7365310;19;19922;-62
2023/03/20 05:38:31;;;;;;;;;;;;;;;11.46;81.05;101248.75;7364189;19;19918;-61
2023/03/20 05:40:59;;;;;;;;;;;;;;;11.47;80.92;101241.69;7362479;19;19922;-61
2023/03/20 05:43:27;;;;;;;;;;;;;;;11.46;81.48;101237.38;7364442;19;19927;-58
2023/03/20 05:45:57;;;;;;;;;;;;;;;11.41;81.08;101229.94;7362706;19;19962;-60
2023/03/20 05:48:24;;;;;;;;;;;;;;;11.41;81.43;101235.19;7362804;19;19927;-61
2023/03/20 05:50:50;;;;;;;;;;;;;;;11.44;81.87;101239.34;7361880;19;19923;-61
2023/03/20 05:53:17;;;;;;;;;;;;;;;11.46;82.56;101238.22;7363251;19;20013;-61
2023/03/20 05:55:44;;;;;;;;;;;;;;;11.49;83.03;101237.06;7360549;19;19927;-61
2023/03/20 05:58:11;;;;;;;;;;;;;;;11.51;82.97;101233.34;7365300;19;21255;-61
2023/03/20 06:00:38;;;;;;;;;;;;;;;11.51;83.30;101237.78;7363855;19;21207;-63
2023/03/20 06:03:08;;;;;;;;;;;;;;;11.54;83.95;101240.94;7366597;19;20010;-61
2023/03/20 06:05:35;;;;;;;;;;;;;;;11.57;84.20;101240.66;7363447;19;19918;-60
2023/03/20 06:08:03;;;;;;;;;;;;;;;11.61;84.52;101240.34;7364560;19;20389;-63
2023/03/20 06:10:30;;;;;;;;;;;;;;;11.65;85.19;101231.97;7364495;19;19922;-62
2023/03/20 06:12:59;;;;;;;;;;;;;;;11.66;84.64;101238.91;7365833;19;19926;-61
2023/03/20 06:15:27;;;;;;;;;;;;;;;11.66;84.96;101238.09;7366360;19;19933;-63
2023/03/20 06:17:55;;;;;;;;;;;;;;;11.63;85.01;101238.41;7364869;19;19945;-63
2023/03/20 06:20:22;;;;;;;;;;;;;;;11.63;85.47;101235.75;7364940;19;19923;-61
2023/03/20 06:22:49;;;;;;;;;;;;;;;11.66;86.34;101238.09;7366867;19;21808;-62
2023/03/20 06:25:16;;;;;;;;;;;;;;;11.65;86.29;101239.06;7362800;19;20493;-63
2023/03/20 06:27:44;;;;;;;;;;;;;;;11.65;86.37;101239.88;7365045;19;20702;-64
2023/03/20 06:30:11;;;;;;;;;;;;;;;11.63;86.45;101252.38;7366413;19;19922;-61
2023/03/20 06:32:38;;;;;;;;;;;;;;;11.66;86.96;101248.63;7366635;19;19919;-63
2023/03/20 06:35:06;;;;;;;;;;;;;;;11.67;87.61;101255.56;7364499;19;20366;-60
2023/03/20 06:37:33;;;;;;;;;;;;;;;11.65;87.68;101260.97;7364770;19;19927;-64
2023/03/20 06:39:59;;;;;;;;;;;;;;;11.67;87.86;101264.31;7362231;19;19941;-62
2023/03/20 06:42:26;;;;;;;;;;;;;;;11.66;87.79;101259.16;7360434;19;20296;-66
2023/03/20 06:44:53;;;;;;;;;;;;;;;11.66;87.83;101261.81;7362526;19;19922;-62
2023/03/20 06:47:20;;;;;;;;;;;;;;;11.66;88.08;101251.25;7362232;19;19926;-62
2023/03/20 06:49:47;;;;;;;;;;;;;;;11.66;88.17;101259.16;7363885;19;19922;-62
2023/03/20 06:52:17;;;;;;;;;;;;;;;11.66;88.23;101259.16;7364001;19;19938;-60
2023/03/20 06:54:44;;;;;;;;;;;;;;;11.67;88.29;101255.56;7361012;19;19923;-61
2023/03/20 06:57:11;;;;;;;;;;;;;;;11.65;88.38;101260.97;7362979;19;19945;-63
2023/03/20 06:59:40;;;;;;;;;;;;;;;11.68;89.05;101260.69;7362018;19;19922;-61
2023/03/20 07:02:08;;;;;;;;;;;;;;;11.71;89.42;101252.47;7362746;19;19926;-61
2023/03/20 07:04:36;;;;;;;;;;;;;;;11.72;88.94;101269.13;7360782;19;21433;-60
2023/03/20 07:07:03;;;;;;;;;;;;;;;11.72;89.00;101258.59;7360784;19;21014;-61
2023/03/20 07:09:29;;;;;;;;;;;;;;;11.77;89.90;101261.63;7357115;19;20427;-62
2023/03/20 07:11:56;;;;;;;;;;;;;;;11.83;89.56;101253.13;7360518;19;19918;-62
2023/03/20 07:14:23;;;;;;;;;;;;;;;11.84;89.29;101250.31;7361071;19;20279;-61
2023/03/20 07:16:50;;;;;;;;;;;;;;;11.86;89.73;101250.19;7361893;19;19919;-62
2023/03/20 07:19:17;;;;;;;;;;;;;;;11.85;89.92;101251.97;7360384;19;19967;-62
2023/03/20 07:21:53;;;;;;;;;;;;;;;11.84;90.27;101258.22;7360563;19;20787;-62
2023/03/20 07:24:20;;;;;;;;;;;;;;;11.85;90.28;101254.63;7358411;19;19919;-62
2023/03/20 07:26:47;;;;;;;;;;;;;;;11.88;90.57;101253.50;7363893;19;19929;-61
2023/03/20 07:29:14;;;;;;;;;;;;;;;11.86;91.04;101256.28;7358325;19;20465;-63
2023/03/20 07:31:46;;;;;;;;;;;;;;;11.86;91.13;101237.81;7359235;19;20611;-61
2023/03/20 07:34:13;;;;;;;;;;;;;;;11.90;91.48;101244.44;7358986;19;19926;-61
2023/03/20 07:36:43;;;;;;;;;;;;;;;11.95;92.15;101249.25;7360149;19;20271;-61
2023/03/20 07:39:12;;;;;;;;;;;;;;;11.98;92.25;101241.06;7355623;19;19926;-63
2023/03/20 07:41:39;;;;;;;;;;;;;;;12.02;92.12;101242.41;7357943;19;19918;-62
2023/03/20 07:44:13;;;;;;;;;;;;;;;12.10;92.10;101241.66;7359091;19;19926;-61
2023/03/20 07:46:40;;;;;;;;;;;;;;;12.10;92.21;101239.84;7360923;19;19927;-60
2023/03/20 07:49:06;;;;;;;;;;;;;;;12.11;91.88;101240.66;7359908;19;19923;-61
2023/03/20 07:51:33;;;;;;;;;;;;;;;12.15;92.42;101247.28;7357576;19;21209;-60
2023/03/20 07:54:00;;;;;;;;;;;;;;;12.17;92.42;101242.69;7355780;19;19922;-62
2023/03/20 07:56:26;;;;;;;;;;;;;;;12.16;92.45;101241.88;7359454;19;19926;-61
2023/03/20 07:58:53;;;;;;;;;;;;;;;12.18;93.08;101237.28;7358669;19;20260;-60
2023/03/20 08:01:20;;;;;;;;;;;;;;;12.21;93.20;101244.88;7359000;19;19926;-65
2023/03/20 08:03:47;;;;;;;;;;;;;;;12.23;92.70;101248.22;7354903;19;19960;-62
2023/03/20 08:06:14;;;;;;;;;;;;;;;12.29;92.90;101252.84;7359832;19;20015;-61
2023/03/20 08:08:41;;;;;;;;;;;;;;;12.32;92.62;101249.91;7359868;19;19923;-63
2023/03/20 08:11:07;;;;;;;;;;;;;;;12.40;93.49;101249.97;7358480;19;19927;-61
2023/03/20 08:13:34;;;;;;;;;;;;;;;12.45;93.20;101252.13;7356484;19;21488;-60
2023/03/20 08:16:01;;;;;;;;;;;;;;;12.47;92.20;101252.81;7358741;19;21865;-61
2023/03/20 08:18:27;;;;;;;;;;;;;;;12.52;92.60;101250.53;7359729;19;19929;-62
2023/03/20 08:20:54;;;;;;;;;;;;;;;12.56;92.49;101251.06;7357820;19;19934;-61
2023/03/20 08:23:21;;;;;;;;;;;;;;;12.58;91.98;101252.56;7359692;19;20227;-61
2023/03/20 08:25:48;;;;;;;;;;;;;;;12.60;92.13;101247.94;7358735;19;20232;-61
2023/03/20 08:28:15;;;;;;;;;;;;;;;12.62;92.10;101242.53;7357698;19;20182;-60
2023/03/20 08:30:42;;;;;;;;;;;;;;;12.64;92.54;101243.22;7356198;19;19923;-61
2023/03/20 08:33:10;;;;;;;;;;;;;;;12.62;92.75;101239.88;7355478;19;19918;-61
2023/03/20 08:35:36;;;;;;;;;;;;;;;12.59;93.01;101242.84;7350790;19;19960;-60
2023/03/20 08:38:03;;;;;;;;;;;;;;;12.57;93.38;101244.81;7354316;19;19940;-62
2023/03/20 08:40:31;;;;;;;;;;;;;;;12.64;94.44;101243.22;7353970;19;19930;-61
2023/03/20 08:43:00;;;;;;;;;;;;;;;12.69;94.19;101248.84;7358532;19;19927;-62
2023/03/20 08:45:26;;;;;;;;;;;;;;;12.71;93.85;101244.22;7358692;19;20612;-60
2023/03/20 08:47:53;;;;;;;;;;;;;;;12.70;93.42;101248.66;7358651;19;21441;-61
2023/03/20 08:50:20;;;;;;;;;;;;;;;12.77;94.57;101238.31;7367546;19;20201;-60
2023/03/20 08:52:47;;;;;;;;;;;;;;;12.85;94.68;101241.00;7367837;19;20301;-59
2023/03/20 08:55:15;;;;;;;;;;;;;;;12.90;94.49;101240.56;7359987;19;19930;-62
2023/03/20 08:57:42;;;;;;;;;;;;;;;12.92;94.43;101249.97;7366550;19;20538;-62
2023/03/20 09:00:11;;;;;;;;;;;;;;;12.94;94.70;101245.34;7366192;19;19915;-58
2023/03/20 09:02:38;;;;;;;;;;;;;;;12.93;94.59;101248.16;7363541;19;19926;-63
2023/03/20 09:05:06;;;;;;;;;;;;;;;12.95;94.87;101248.81;7364731;19;20372;-60
2023/03/20 09:07:33;;;;;;;;;;;;;;;12.95;95.33;101244.38;7367531;19;19937;-62
2023/03/20 09:09:59;;;;;;;;;;;;;;;12.99;95.65;101243.06;7369530;19;20296;-62
2023/03/20 09:12:27;;;;;;;;;;;;;;;13.06;95.94;101245.88;7366741;19;19926;-62
2023/03/20 09:14:53;;;;;;;;;;;;;;;13.13;96.22;101247.78;7367857;19;20781;-62
2023/03/20 09:17:20;;;;;;;;;;;;;;;13.15;95.38;101263.47;7365747;19;21906;-62
2023/03/20 09:19:47;;;;;;;;;;;;;;;13.17;95.00;101261.50;7364988;19;21512;-63
2023/03/20 09:22:14;;;;;;;;;;;;;;;13.20;94.69;101267.31;7364218;19;19946;-62
2023/03/20 09:24:41;;;;;;;;;;;;;;;13.27;94.70;101268.31;7362746;19;20200;-59
2023/03/20 09:27:07;;;;;;;;;;;;;;;13.35;94.70;101258.75;7365266;19;19973;-60
2023/03/20 09:29:34;;;;;;;;;;;;;;;13.46;94.84;101255.84;7366649;19;19923;-60
2023/03/20 09:32:01;;;;;;;;;;;;;;;13.49;93.73;101255.50;7366785;19;19922;-61
2023/03/20 09:34:28;;;;;;;;;;;;;;;13.45;92.41;101262.09;7367269;19;19915;-62
2023/03/20 09:36:55;;;;;;;;;;;;;;;13.48;92.44;101259.97;7365100;19;20014;-59
2023/03/20 09:39:22;;;;;;;;;;;;;;;13.55;92.53;101258.34;7363779;19;19934;-63
2023/03/20 09:41:55;;;;;;;;;;;;;;;13.58;91.96;101254.53;7363031;19;20209;-62
2023/03/20 09:44:37;;;;;;;;;;;;;;;13.59;91.74;101259.66;7364851;19;19927;-61
2023/03/20 09:47:23;;;;;;;;;;;;;;;13.60;91.47;101250.75;7365354;19;19921;-63
2023/03/20 09:50:00;;;;;;;;;;;;;;;13.61;91.45;101257.66;7365190;19;19922;-62
2023/03/20 09:52:31;;;;;;;;;;;;;;;13.61;90.83;101257.66;7362373;19;20950;-61
2023/03/20 09:55:15;;;;;;;;;;;;;;;13.63;91.05;101252.22;7361928;19;19918;-60
2023/03/20 09:57:45;;;;;;;;;;;;;;;13.65;90.74;101264.31;7368357;19;19922;-62
2023/03/20 10:00:12;;;;;;;;;;;;;;;13.68;90.78;101261.31;7365017;19;21685;-61
2023/03/20 10:02:45;;;;;;;;;;;;;;;13.72;90.96;101259.19;7363383;19;19918;-61
2023/03/20 10:05:31;;;;;;;;;;;;;;;13.76;90.94;101255.25;7366093;19;19974;-62
2023/03/20 10:07:59;;;;;;;;;;;;;;;13.79;90.60;101264.66;7364421;19;19922;-62
2023/03/20 10:10:30;;;;;;;;;;;;;;;13.84;91.14;101257.88;7362350;19;19919;-62
2023/03/20 10:13:07;;;;;;;;;;;;;;;13.85;90.81;101254.25;7361891;19;20228;-61
2023/03/20 10:15:45;;;;;;;;;;;;;;;13.86;90.56;101257.72;7361680;19;19925;-61
2023/03/20 10:18:21;;;;;;;;;;;;;;;13.87;90.55;101256.72;7362780;19;20790;-62
2023/03/20 10:21:06;;;;;;;;;;;;;;;13.90;90.45;101256.41;7362188;19;20597;-63
2023/03/20 10:23:36;;;;;;;;;;;;;;;13.92;90.54;101260.53;7362742;19;19918;-61
2023/03/20 10:26:10;;;;;;;;;;;;;;;13.96;90.96;101261.06;7361843;19;19921;-61
2023/03/20 10:28:56;;;;;;;;;;;;;;;14.00;90.60;101265.84;7364928;19;20227;-62
2023/03/20 10:31:45;;;;;;;;;;;;;;;13.98;90.10;101256.41;7364351;19;19925;-61
2023/03/20 10:34:13;;;;;;;;;;;;;;;13.95;90.04;101254.09;7365489;19;19963;-61
2023/03/20 10:36:52;;;;;;;;;;;;;;;13.96;90.16;101251.28;7360521;19;19930;-61
2023/03/20 10:39:25;;;;;;;;;;;;;;;14.01;90.75;101251.63;7362748;19;21112;-60
2023/03/20 10:41:55;;;;;;;;;;;;;;;14.11;91.14;101248.81;7363214;19;20609;-62
2023/03/20 10:44:37;;;;;;;;;;;;;;;14.14;90.26;101244.03;7366688;19;21304;-58
2023/03/20 10:47:06;;;;;;;;;;;;;;;14.13;89.57;101246.81;7363171;19;19933;-62
2023/03/20 10:49:36;;;;;;;;;;;;;;;14.14;90.25;101256.41;7361629;19;20756;-60
2023/03/20 10:52:05;;;;;;;;;;;;;;;14.15;90.32;101244.84;7365009;19;20410;-63
2023/03/20 10:54:38;;;;;;;;;;;;;;;14.20;90.75;101247.00;7363469;19;20337;-61
2023/03/20 10:57:09;;;;;;;;;;;;;;;14.19;90.29;101253.28;7365825;19;19925;-61
2023/03/20 10:59:38;;;;;;;;;;;;;;;14.18;90.02;101251.63;7358435;19;19923;-61
2023/03/20 11:02:09;;;;;;;;;;;;;;;14.17;89.68;101247.34;7362047;19;19925;-62
2023/03/20 11:04:35;;;;;;;;;;;;;;;14.13;89.96;101250.28;7364267;19;19919;-62
2023/03/20 11:07:11;;;;;;;;;;;;;;;14.11;89.88;101251.47;7362300;19;19971;-58
2023/03/20 11:09:39;;;;;;;;;;;;;;;14.12;89.95;101253.94;7349085;19;19943;-62
2023/03/20 11:12:13;;;;;;;;;;;;;;;14.16;90.49;101259.75;7359127;19;19959;-60
2023/03/20 11:14:40;;;;;;;;;;;;;;;14.16;90.18;101243.84;7359939;19;19950;-61
2023/03/20 11:17:06;;;;;;;;;;;;;;;14.18;89.89;101249.78;7358497;19;19923;-62
2023/03/20 11:19:35;;;;;;;;;;;;;;;14.18;89.86;101255.09;7359376;19;19923;-61
2023/03/20 11:22:21;;;;;;;;;;;;;;;14.17;90.03;101249.97;7358474;19;20446;-59
2023/03/20 11:25:02;;;;;;;;;;;;;;;14.19;90.35;101253.28;7357949;19;19921;-62
2023/03/20 11:27:30;;;;;;;;;;;;;;;14.25;90.08;101236.72;7359038;19;19923;-61
2023/03/20 11:29:59;;;;;;;;;;;;;;;14.31;89.63;101241.38;7361217;19;20619;-61
2023/03/20 11:32:26;;;;;;;;;;;;;;;14.36;89.37;101244.34;7359626;19;19943;-61
2023/03/20 11:34:56;;;;;;;;;;;;;;;14.44;89.69;101241.69;7360557;19;20813;-60
2023/03/20 11:37:25;;;;;;;;;;;;;;;14.49;89.24;101237.56;7359018;19;19922;-63
2023/03/20 11:39:52;;;;;;;;;;;;;;;14.52;88.48;101239.06;7355252;19;19929;-59
2023/03/20 11:42:23;;;;;;;;;;;;;;;14.51;88.56;101245.34;7357183;19;19927;-61
2023/03/20 11:45:16;;;;;;;;;;;;;;;14.49;88.72;101242.84;7358980;19;19922;-61
2023/03/20 11:47:47;;;;;;;;;;;;;;;14.57;89.24;101241.19;7357317;19;19915;-61
2023/03/20 11:50:26;;;;;;;;;;;;;;;14.60;88.79;101246.16;7359799;19;19926;-58
2023/03/20 11:52:53;;;;;;;;;;;;;;;14.64;88.18;101244.81;7356488;19;19919;-61
2023/03/20 11:55:34;;;;;;;;;;;;;;;14.63;87.95;101243.97;7356056;19;20365;-62
2023/03/20 11:58:03;;;;;;;;;;;;;;;14.58;88.11;101242.88;7359931;19;21862;-60
2023/03/20 12:00:38;;;;;;;;;;;;;;;14.59;88.54;101247.97;7357453;19;19930;-60
2023/03/20 12:03:25;;;;;;;;;;;;;;;14.63;89.07;101241.34;7358002;19;19945;-62
2023/03/20 12:05:58;;;;;;;;;;;;;;;14.69;88.90;101243.31;7357233;19;19926;-62
2023/03/20 12:08:26;;;;;;;;;;;;;;;14.66;88.22;101240.19;7356288;19;19911;-58
2023/03/20 12:10:58;;;;;;;;;;;;;;;14.74;88.60;101243.63;7351413;19;19923;-62
2023/03/20 12:13:36;;;;;;;;;;;;;;;14.78;88.54;101237.00;7352874;19;19926;-59
2023/03/20 12:16:05;;;;;;;;;;;;;;;14.83;88.84;101234.66;7356919;19;20003;-61
2023/03/20 12:18:39;;;;;;;;;;;;;;;14.85;87.81;101232.69;7358246;19;20241;-63
2023/03/20 12:21:11;;;;;;;;;;;;;;;14.87;87.67;101233.34;7357058;19;19915;-60
2023/03/20 12:23:38;;;;;;;;;;;;;;;14.86;87.31;101231.69;7355977;19;19923;-61
2023/03/20 12:26:27;;;;;;;;;;;;;;;14.83;87.60;101232.00;7355950;19;19931;-61
2023/03/20 12:29:15;;;;;;;;;;;;;;;14.84;87.51;101224.88;7359033;19;19919;-61
2023/03/20 12:31:49;;;;;;;;;;;;;;;14.82;87.18;101229.56;7356129;19;20262;-59
2023/03/20 12:34:20;;;;;;;;;;;;;;;14.78;87.16;101228.25;7357618;19;20360;-61
2023/03/20 12:36:48;;;;;;;;;;;;;;;14.75;87.42;101234.69;7358937;19;20430;-57
2023/03/20 12:39:22;;;;;;;;;;;;;;;14.79;87.30;101225.41;7357053;19;19911;-60
2023/03/20 12:42:05;;;;;;;;;;;;;;;14.76;87.29;101232.88;7354732;19;19922;-60
2023/03/20 12:44:56;;;;;;;;;;;;;;;14.74;87.87;101229.56;7358890;19;19934;-60
2023/03/20 12:47:46;;;;;;;;;;;;;;;14.73;87.97;101230.56;7353490;19;19951;-61
2023/03/20 12:50:13;;;;;;;;;;;;;;;14.73;88.05;101219.97;7359385;19;19931;-59